createdAt,value
2023-05-19T00:01:48.264Z,15.10
2023-05-19T00:04:18.318Z,14.00
2023-05-19T00:06:52.151Z,14.65
2023-05-19T00:09:21.954Z,13.73
2023-05-19T00:11:51.578Z,14.13
2023-05-19T00:14:21.189Z,14.70
2023-05-19T00:16:52.349Z,13.73
2023-05-19T00:19:22.192Z,13.73
2023-05-19T00:21:51.441Z,13.23
2023-05-19T00:24:20.432Z,14.27
2023-05-19T00:26:49.545Z,12.95
2023-05-19T00:29:19.267Z,12.13
2023-05-19T00:31:48.533Z,13.73
2023-05-19T00:34:18.858Z,12.95
2023-05-19T00:36:47.997Z,12.20
2023-05-19T00:39:20.004Z,12.45
2023-05-19T00:41:49.032Z,13.30
2023-05-19T00:44:18.324Z,13.20
2023-05-19T00:46:47.398Z,13.00
2023-05-19T00:49:18.546Z,12.48
2023-05-19T00:51:47.632Z,13.07
2023-05-19T00:54:17.687Z,12.13
2023-05-19T00:56:46.897Z,11.95
2023-05-19T00:59:15.858Z,12.55
2023-05-19T01:01:45.876Z,12.77
2023-05-19T01:04:17.094Z,11.38
2023-05-19T01:06:48.503Z,11.93
2023-05-19T01:09:18.579Z,10.45
2023-05-19T01:11:47.598Z,10.68
2023-05-19T01:14:17.234Z,10.30
2023-05-19T01:16:51.818Z,9.65
2023-05-19T01:19:39.304Z,9.95
2023-05-19T01:22:23.092Z,10.18
2023-05-19T01:25:33.622Z,10.95
2023-05-19T01:28:51.485Z,10.02
2023-05-19T01:31:24.771Z,10.70
2023-05-19T01:36:24.557Z,9.23
2023-05-19T01:38:57.856Z,9.80
2023-05-19T01:41:28.561Z,9.00
2023-05-19T01:43:59.118Z,8.07
2023-05-19T01:46:29.483Z,7.88
2023-05-19T01:48:59.086Z,7.50
2023-05-19T01:51:29.283Z,7.07
2023-05-19T01:53:58.280Z,7.18
2023-05-19T01:56:39.504Z,6.95
2023-05-19T01:59:23.245Z,6.32
2023-05-19T02:01:58.549Z,6.65
2023-05-19T02:04:40.098Z,6.68
2023-05-19T02:07:15.859Z,6.60
2023-05-19T02:09:52.720Z,6.93
2023-05-19T02:12:27.559Z,6.38
2023-05-19T02:15:04.868Z,6.97
2023-05-19T02:17:38.107Z,7.47
2023-05-19T02:20:08.952Z,6.05
2023-05-19T02:22:39.008Z,6.15
2023-05-19T02:25:09.740Z,5.88
2023-05-19T02:27:40.086Z,5.63
2023-05-19T02:30:10.616Z,5.88
2023-05-19T02:32:41.185Z,5.32
2023-05-19T02:35:11.730Z,5.65
2023-05-19T02:37:41.864Z,5.40
2023-05-19T02:40:11.377Z,4.93
2023-05-19T02:42:40.523Z,5.30
2023-05-19T02:45:10.230Z,5.70
2023-05-19T02:47:41.581Z,4.93
2023-05-19T02:50:11.050Z,5.43
2023-05-19T02:52:39.971Z,5.32
2023-05-19T02:55:09.838Z,5.50
2023-05-19T02:57:38.764Z,5.18
2023-05-19T03:00:09.481Z,5.00
2023-05-19T03:02:38.678Z,5.22
2023-05-19T03:05:10.397Z,5.80
2023-05-19T03:07:39.306Z,5.05
2023-05-19T03:10:09.913Z,5.80
2023-05-19T03:12:38.992Z,4.70
2023-05-19T03:15:09.134Z,5.20
2023-05-19T03:17:38.113Z,4.85
2023-05-19T03:20:10.904Z,5.22
2023-05-19T03:22:39.850Z,5.07
2023-05-19T03:25:09.383Z,5.13
2023-05-19T03:27:38.384Z,5.43
2023-05-19T03:30:10.838Z,5.15
2023-05-19T03:32:55.533Z,4.97
2023-05-19T03:35:25.852Z,5.28
2023-05-19T03:37:55.021Z,5.32
2023-05-19T03:40:24.095Z,4.88
2023-05-19T03:42:58.688Z,5.20
2023-05-19T03:45:27.754Z,5.00
2023-05-19T03:47:57.197Z,4.88
2023-05-19T03:50:50.572Z,4.60
2023-05-19T03:53:25.211Z,4.43
2023-05-19T03:55:56.764Z,4.70
2023-05-19T03:58:26.954Z,4.20
2023-05-19T04:01:08.612Z,4.20
2023-05-19T04:03:38.175Z,4.78
2023-05-19T04:06:09.044Z,4.35
2023-05-19T04:08:37.999Z,4.70
2023-05-19T04:11:06.978Z,4.75
2023-05-19T04:13:36.386Z,4.72
2023-05-19T04:16:06.168Z,5.03
2023-05-19T04:18:35.269Z,9.50
2023-05-19T04:21:04.509Z,5.13
2023-05-19T04:23:35.989Z,4.78
2023-05-19T04:26:06.792Z,4.57
2023-05-19T04:28:39.008Z,5.00
2023-05-19T04:31:10.991Z,4.60
2023-05-19T04:33:40.808Z,4.30
2023-05-19T04:36:11.537Z,4.93
2023-05-19T04:38:46.761Z,4.45
2023-05-19T04:41:16.578Z,4.80
2023-05-19T04:43:48.449Z,4.60
2023-05-19T04:46:17.868Z,4.85
2023-05-19T04:48:47.867Z,4.78
2023-05-19T04:51:17.784Z,4.70
2023-05-19T04:53:49.238Z,5.38
2023-05-19T04:56:18.232Z,5.13
2023-05-19T04:58:47.497Z,4.30
2023-05-19T05:01:17.006Z,5.15
2023-05-19T05:03:46.111Z,4.53
2023-05-19T05:06:15.252Z,4.60
2023-05-19T05:08:44.186Z,4.43
2023-05-19T05:11:15.634Z,5.88
2023-05-19T05:13:45.350Z,4.22
2023-05-19T05:16:16.829Z,9.30
2023-05-19T05:18:47.007Z,5.78
2023-05-19T05:21:16.776Z,5.00
2023-05-19T05:23:46.367Z,5.60
2023-05-19T05:26:19.850Z,4.68
2023-05-19T05:28:51.287Z,4.43
2023-05-19T05:31:21.395Z,4.63
2023-05-19T05:33:50.736Z,4.80
2023-05-19T05:36:23.212Z,5.05
2023-05-19T05:38:52.179Z,4.70
2023-05-19T05:41:22.941Z,5.18
2023-05-19T05:43:54.257Z,5.05
2023-05-19T05:46:23.417Z,4.57
2023-05-19T05:48:53.212Z,4.80
2023-05-19T05:51:23.712Z,5.50
2023-05-19T05:53:54.217Z,5.28
2023-05-19T05:56:29.753Z,5.35
2023-05-19T05:58:58.936Z,5.43
2023-05-19T06:01:28.255Z,5.18
2023-05-19T06:03:59.523Z,5.18
2023-05-19T06:06:31.390Z,5.35
2023-05-19T06:09:01.927Z,5.78
2023-05-19T06:11:33.488Z,5.82
2023-05-19T06:14:05.902Z,5.82
2023-05-19T06:16:56.881Z,5.90
2023-05-19T06:19:37.024Z,5.68
2023-05-19T06:22:12.193Z,6.07
2023-05-19T06:24:41.697Z,5.22
2023-05-19T06:27:13.351Z,5.72
2023-05-19T06:29:42.287Z,7.00
2023-05-19T06:32:11.685Z,6.38
2023-05-19T06:34:42.283Z,5.80
2023-05-19T06:37:11.932Z,5.90
2023-05-19T06:39:41.409Z,5.65
2023-05-19T06:42:10.765Z,6.20
2023-05-19T06:45:01.110Z,5.93
2023-05-19T06:47:31.090Z,5.80
2023-05-19T06:50:00.616Z,5.85
2023-05-19T06:52:33.999Z,5.75
2023-05-19T06:55:04.107Z,6.38
2023-05-19T06:57:34.284Z,5.78
2023-05-19T07:00:07.018Z,5.60
2023-05-19T07:02:36.526Z,5.65
2023-05-19T07:05:11.249Z,6.05
2023-05-19T07:07:40.295Z,5.35
2023-05-19T07:10:15.173Z,5.85
2023-05-19T07:12:44.889Z,5.45
2023-05-19T07:15:16.032Z,6.20
2023-05-19T07:17:46.521Z,5.57
2023-05-19T07:20:15.713Z,5.20
2023-05-19T07:22:44.695Z,5.10
2023-05-19T07:25:14.240Z,5.07
2023-05-19T07:27:43.333Z,5.32
2023-05-19T07:30:13.511Z,5.38
2023-05-19T07:32:44.982Z,5.55
2023-05-19T07:35:18.985Z,5.30
2023-05-19T07:37:48.388Z,5.20
2023-05-19T07:40:17.824Z,5.47
2023-05-19T07:42:46.824Z,5.47
2023-05-19T07:45:16.991Z,5.28
2023-05-19T07:47:47.621Z,5.07
2023-05-19T07:50:17.063Z,5.82
2023-05-19T07:52:46.242Z,5.68
2023-05-19T07:55:15.324Z,5.70
2023-05-19T07:57:46.768Z,5.97
2023-05-19T08:00:17.047Z,6.05
2023-05-19T08:02:50.151Z,5.68
2023-05-19T08:05:19.563Z,4.93
2023-05-19T08:07:48.833Z,5.70
2023-05-19T08:10:18.070Z,5.55
2023-05-19T08:12:47.661Z,5.65
2023-05-19T08:15:16.916Z,5.50
2023-05-19T08:17:47.550Z,6.22
2023-05-19T08:20:17.198Z,5.85
2023-05-19T08:22:47.092Z,6.07
2023-05-19T08:25:16.202Z,6.32
2023-05-19T08:27:45.071Z,5.75
2023-05-19T08:30:14.546Z,5.25
2023-05-19T08:32:43.744Z,5.38
2023-05-19T08:35:14.284Z,6.15
2023-05-19T08:37:43.513Z,6.15
2023-05-19T08:40:19.370Z,6.03
2023-05-19T08:42:50.283Z,6.90
2023-05-19T08:45:19.551Z,6.90
2023-05-19T08:47:48.814Z,7.03
2023-05-19T08:50:24.972Z,8.32
2023-05-19T08:52:58.013Z,8.95
2023-05-19T08:55:34.007Z,8.48
2023-05-19T08:58:05.331Z,8.82
2023-05-19T09:00:35.286Z,9.73
2023-05-19T09:03:17.428Z,9.70
2023-05-19T09:05:53.874Z,9.98
2023-05-19T09:08:23.239Z,10.73
2023-05-19T09:10:52.171Z,9.13
2023-05-19T09:13:21.082Z,10.07
2023-05-19T09:15:51.643Z,9.45
2023-05-19T09:18:21.141Z,9.60
2023-05-19T09:20:50.248Z,8.88
2023-05-19T09:23:21.175Z,9.73
2023-05-19T09:25:51.032Z,10.98
2023-05-19T09:28:28.120Z,9.98
2023-05-19T09:31:04.211Z,8.98
2023-05-19T09:33:35.622Z,8.75
2023-05-19T09:36:06.256Z,7.88
2023-05-19T09:38:40.057Z,9.07
2023-05-19T09:41:09.920Z,7.43
2023-05-19T09:43:39.047Z,8.65
2023-05-19T09:46:11.240Z,7.68
2023-05-19T09:48:42.734Z,7.07
2023-05-19T09:51:11.788Z,7.82
2023-05-19T09:53:44.929Z,7.70
2023-05-19T09:56:16.334Z,7.50
2023-05-19T09:58:45.469Z,6.85
2023-05-19T10:01:15.158Z,6.30
2023-05-19T10:03:45.654Z,6.20
2023-05-19T10:06:16.780Z,5.47
2023-05-19T10:08:49.419Z,5.93
2023-05-19T10:11:19.290Z,5.80
2023-05-19T10:13:52.094Z,6.22
2023-05-19T10:18:54.424Z,5.53
2023-05-19T10:21:23.750Z,6.22
2023-05-19T10:23:54.443Z,6.20
2023-05-19T10:26:24.816Z,5.38
2023-05-19T10:28:54.215Z,5.95
2023-05-19T10:31:25.834Z,5.43
2023-05-19T10:34:09.708Z,5.90
2023-05-19T10:36:47.800Z,6.28
2023-05-19T10:39:27.933Z,5.50
2023-05-19T10:42:09.007Z,6.20
2023-05-19T10:44:54.530Z,6.05
2023-05-19T10:47:26.415Z,6.03
2023-05-19T10:49:55.907Z,6.45
2023-05-19T10:52:29.740Z,6.97
2023-05-19T10:55:00.175Z,6.78
2023-05-19T10:57:31.992Z,6.82
2023-05-19T11:00:01.551Z,7.03
2023-05-19T11:02:41.944Z,7.53
2023-05-19T11:05:13.016Z,6.55
2023-05-19T11:07:46.059Z,6.95
2023-05-19T11:10:24.364Z,7.22
2023-05-19T11:12:53.844Z,7.85
2023-05-19T11:15:27.583Z,7.57
2023-05-19T11:17:57.205Z,7.22
2023-05-19T11:20:27.704Z,7.15
2023-05-19T11:23:07.472Z,6.68
2023-05-19T11:25:45.630Z,7.75
2023-05-19T11:28:17.409Z,7.28
2023-05-19T11:30:50.459Z,6.50
2023-05-19T11:33:20.689Z,5.90
2023-05-19T11:35:51.263Z,5.72
2023-05-19T11:38:20.937Z,5.53
2023-05-19T11:40:54.501Z,6.25
2023-05-19T11:43:27.794Z,6.22
2023-05-19T11:45:57.359Z,6.28
2023-05-19T11:48:27.852Z,6.63
2023-05-19T11:50:57.039Z,5.90
2023-05-19T11:53:26.169Z,5.65
2023-05-19T11:55:56.653Z,5.68
2023-05-19T11:58:29.835Z,5.75
2023-05-19T12:00:59.228Z,7.15
2023-05-19T12:03:29.788Z,7.45
2023-05-19T12:05:59.201Z,7.65
2023-05-19T12:08:28.357Z,7.82
2023-05-19T12:10:58.988Z,7.50
2023-05-19T12:13:34.511Z,8.52
2023-05-19T12:16:06.954Z,7.60
2023-05-19T12:18:38.704Z,8.70
2023-05-19T12:21:08.053Z,7.82
2023-05-19T12:23:37.158Z,7.47
2023-05-19T12:26:07.581Z,7.43
2023-05-19T12:28:37.410Z,8.02
2023-05-19T12:31:07.106Z,7.93
2023-05-19T12:33:36.157Z,8.10
2023-05-19T12:36:09.138Z,9.27
2023-05-19T12:38:39.776Z,9.10
2023-05-19T12:41:12.622Z,9.25
2023-05-19T12:46:15.462Z,8.13
2023-05-19T12:48:45.171Z,9.07
2023-05-19T12:51:18.942Z,8.65
2023-05-19T12:53:48.517Z,9.23
2023-05-19T12:56:19.008Z,8.90
2023-05-19T12:58:54.532Z,9.23
2023-05-19T13:01:24.426Z,8.73
2023-05-19T13:03:53.990Z,9.35
2023-05-19T13:06:26.103Z,9.15
2023-05-19T13:08:54.991Z,8.10
2023-05-19T13:11:25.255Z,8.10
2023-05-19T13:13:54.242Z,7.85
2023-05-19T13:16:24.028Z,8.85
2023-05-19T13:18:53.589Z,8.25
2023-05-19T13:21:22.613Z,9.35
2023-05-19T13:23:52.459Z,10.07
2023-05-19T13:26:21.610Z,9.90
2023-05-19T13:28:51.991Z,10.30
2023-05-19T13:31:21.203Z,10.13
2023-05-19T13:33:50.369Z,10.68
2023-05-19T13:36:19.372Z,10.77
2023-05-19T13:38:50.665Z,10.35
2023-05-19T13:41:25.154Z,10.35
2023-05-19T13:43:55.638Z,9.27
2023-05-19T13:46:36.368Z,9.60
2023-05-19T13:49:13.363Z,9.00
2023-05-19T13:51:45.016Z,9.75
2023-05-19T13:54:13.957Z,9.30
2023-05-19T13:56:48.697Z,8.75
2023-05-19T13:59:19.014Z,9.20
2023-05-19T14:01:48.254Z,8.32
2023-05-19T14:04:18.980Z,9.07
2023-05-19T14:06:48.471Z,8.73
2023-05-19T14:09:17.550Z,8.52
2023-05-19T14:11:46.856Z,8.55
2023-05-19T14:14:16.543Z,9.32
2023-05-19T14:16:47.140Z,9.02
2023-05-19T14:21:47.498Z,8.43
2023-05-19T14:24:17.175Z,8.07
2023-05-19T14:26:46.625Z,9.07
2023-05-19T14:29:19.991Z,8.57
2023-05-19T14:31:50.608Z,9.47
2023-05-19T14:34:21.222Z,8.93
2023-05-19T14:36:50.252Z,9.00
2023-05-19T14:39:19.631Z,8.55
2023-05-19T14:41:51.305Z,8.02
2023-05-19T14:44:22.952Z,8.95
2023-05-19T14:46:54.544Z,8.38
2023-05-19T14:49:23.819Z,8.77
2023-05-19T14:51:53.161Z,8.70
2023-05-19T14:54:22.307Z,8.75
2023-05-19T14:56:51.867Z,9.68
2023-05-19T14:59:21.760Z,8.75
2023-05-19T15:01:50.930Z,8.50
2023-05-19T15:04:21.548Z,8.32
2023-05-19T15:07:05.941Z,9.43
2023-05-19T15:09:38.613Z,8.57
2023-05-19T15:12:08.832Z,8.77
2023-05-19T15:14:37.872Z,9.30
2023-05-19T15:17:07.037Z,8.90
2023-05-19T15:19:41.083Z,8.25
2023-05-19T15:22:10.311Z,8.77
2023-05-19T15:24:39.277Z,8.30
2023-05-19T15:27:09.203Z,9.40
2023-05-19T15:29:38.886Z,8.50
2023-05-19T15:32:09.785Z,8.55
2023-05-19T15:37:12.361Z,7.63
2023-05-19T15:39:41.858Z,8.05
2023-05-19T15:42:11.441Z,7.82
2023-05-19T15:44:40.477Z,8.73
2023-05-19T15:47:09.807Z,7.95
2023-05-19T15:49:39.243Z,8.07
2023-05-19T15:52:09.816Z,8.45
2023-05-19T15:54:38.735Z,8.20
2023-05-19T15:57:07.763Z,8.07
2023-05-19T15:59:36.833Z,8.02
2023-05-19T16:02:06.346Z,7.50
2023-05-19T16:04:35.815Z,9.10
2023-05-19T16:07:05.746Z,8.23
2023-05-19T16:09:36.120Z,7.90
2023-05-19T16:12:05.985Z,7.45
2023-05-19T16:14:40.340Z,7.65
2023-05-19T16:17:11.799Z,8.02
2023-05-19T16:19:40.778Z,8.15
2023-05-19T16:22:09.803Z,7.88
2023-05-19T16:24:43.016Z,7.90
2023-05-19T16:27:14.268Z,7.93
2023-05-19T16:29:43.521Z,8.25
2023-05-19T16:32:12.947Z,8.27
2023-05-19T16:34:42.434Z,7.88
2023-05-19T16:37:14.347Z,8.02
2023-05-19T16:39:45.152Z,7.70
2023-05-19T16:42:14.370Z,7.72
2023-05-19T16:44:43.553Z,7.78
2023-05-19T16:47:12.640Z,7.57
2023-05-19T16:49:41.855Z,8.02
2023-05-19T16:52:13.483Z,7.80
2023-05-19T16:55:57.282Z,7.88
2023-05-19T16:57:39.913Z,7.93
2023-05-19T17:00:10.463Z,8.18
2023-05-19T17:02:39.908Z,8.15
2023-05-19T17:05:09.907Z,7.78
2023-05-19T17:07:39.212Z,8.27
2023-05-19T17:10:10.980Z,8.00
2023-05-19T17:12:40.013Z,8.90
2023-05-19T17:15:09.801Z,8.40
2023-05-19T17:17:40.239Z,8.38
2023-05-19T17:20:10.618Z,8.80
2023-05-19T17:22:39.805Z,8.38
2023-05-19T17:25:11.346Z,8.10
2023-05-19T17:27:40.657Z,8.55
2023-05-19T17:30:14.460Z,7.97
2023-05-19T17:32:43.678Z,8.40
2023-05-19T17:35:13.026Z,9.25
2023-05-19T17:37:42.072Z,8.35
2023-05-19T17:40:13.678Z,8.70
2023-05-19T17:42:42.692Z,10.05
2023-05-19T17:45:13.079Z,9.23
2023-05-19T17:47:45.287Z,10.27
2023-05-19T17:50:15.155Z,9.50
2023-05-19T17:52:44.974Z,10.25
2023-05-19T17:55:16.501Z,9.15
2023-05-19T17:57:47.356Z,8.65
2023-05-19T18:00:17.069Z,11.50
2023-05-19T18:02:46.829Z,10.23
2023-05-19T18:05:17.296Z,9.38
2023-05-19T18:07:46.966Z,8.98
2023-05-19T18:10:18.430Z,9.18
2023-05-19T18:12:47.426Z,9.10
2023-05-19T18:15:16.918Z,8.75
2023-05-19T18:17:46.446Z,9.07
2023-05-19T18:20:17.298Z,9.05
2023-05-19T18:22:47.069Z,8.27
2023-05-19T18:25:18.635Z,9.00
2023-05-19T18:27:47.746Z,8.70
2023-05-19T18:30:16.807Z,8.45
2023-05-19T18:32:45.936Z,8.73
2023-05-19T18:35:15.303Z,8.80
2023-05-19T18:37:44.319Z,7.78
2023-05-19T18:40:13.437Z,9.88
2023-05-19T18:42:44.192Z,9.48
2023-05-19T18:45:13.907Z,8.23
2023-05-19T18:47:43.322Z,8.40
2023-05-19T18:50:13.229Z,8.25
2023-05-19T18:52:42.270Z,8.02
2023-05-19T18:55:11.640Z,7.22
2023-05-19T18:57:41.968Z,7.97
2023-05-19T19:00:14.789Z,8.13
2023-05-19T19:02:44.198Z,8.55
2023-05-19T19:05:13.988Z,8.35
2023-05-19T19:07:44.753Z,8.10
2023-05-19T19:10:15.242Z,8.27
2023-05-19T19:12:44.421Z,8.05
2023-05-19T19:15:15.472Z,8.13
2023-05-19T19:17:45.778Z,7.93
2023-05-19T19:20:15.222Z,16.17
2023-05-19T19:22:44.549Z,8.40
2023-05-19T19:25:13.692Z,7.70
2023-05-19T19:27:42.792Z,8.27
2023-05-19T19:30:17.356Z,7.80
2023-05-19T19:32:51.816Z,7.32
2023-05-19T19:35:23.288Z,7.93
2023-05-19T19:37:52.961Z,7.72
2023-05-19T19:40:22.060Z,7.60
2023-05-19T19:42:51.144Z,7.43
2023-05-19T19:45:22.101Z,7.53
2023-05-19T19:47:51.913Z,8.38
2023-05-19T19:50:21.215Z,8.40
2023-05-19T19:52:52.903Z,7.95
2023-05-19T19:55:22.176Z,15.10
2023-05-19T19:57:51.403Z,8.38
2023-05-19T20:00:24.801Z,7.88
2023-05-19T20:03:03.674Z,12.85
2023-05-19T20:05:33.976Z,7.45
2023-05-19T20:08:05.756Z,7.60
2023-05-19T20:10:35.159Z,8.13
2023-05-19T20:13:07.810Z,8.45
2023-05-19T20:15:38.313Z,8.18
2023-05-19T20:18:07.363Z,8.13
2023-05-19T20:20:37.110Z,8.60
2023-05-19T20:23:07.737Z,7.72
2023-05-19T20:25:53.726Z,7.90
2023-05-19T20:28:28.165Z,7.30
2023-05-19T20:30:59.134Z,7.32
2023-05-19T20:33:28.329Z,8.40
2023-05-19T20:35:58.164Z,8.30
2023-05-19T20:38:27.340Z,7.75
2023-05-19T20:40:59.600Z,7.97
2023-05-19T20:43:32.048Z,8.38
2023-05-19T20:46:03.886Z,8.53
2023-05-19T20:48:33.227Z,7.97
2023-05-19T20:51:02.784Z,8.40
2023-05-19T20:53:31.816Z,8.00
2023-05-19T20:56:05.265Z,8.77
2023-05-19T21:01:04.668Z,8.02
2023-05-19T21:03:33.813Z,7.60
2023-05-19T21:06:03.270Z,7.85
2023-05-19T21:08:32.496Z,8.02
2023-05-19T21:11:01.790Z,7.47
2023-05-19T21:13:31.774Z,7.88
2023-05-19T21:16:00.900Z,7.68
2023-05-19T21:18:31.400Z,7.93
2023-05-19T21:21:03.737Z,7.70
2023-05-19T21:23:32.961Z,7.85
2023-05-19T21:26:02.148Z,7.55
2023-05-19T21:28:31.410Z,8.27
2023-05-19T21:31:05.483Z,7.28
2023-05-19T21:33:36.059Z,8.75
2023-05-19T21:36:15.716Z,7.72
2023-05-19T21:38:47.561Z,7.15
2023-05-19T21:41:16.677Z,10.25
2023-05-19T21:43:47.909Z,7.38
2023-05-19T21:46:16.977Z,7.07
2023-05-19T21:48:47.397Z,6.57
2023-05-19T21:51:16.659Z,7.28
2023-05-19T21:53:46.146Z,6.43
2023-05-19T21:56:16.427Z,6.80
2023-05-19T21:58:45.555Z,6.90
2023-05-19T22:01:14.729Z,6.93
2023-05-19T22:03:43.705Z,6.97
2023-05-19T22:06:14.223Z,6.90
2023-05-19T22:08:46.052Z,6.50
2023-05-19T22:11:18.041Z,7.20
2023-05-19T22:13:48.833Z,6.43
2023-05-19T22:16:17.847Z,6.80
2023-05-19T22:18:58.214Z,7.05
2023-05-19T22:21:29.278Z,7.38
2023-05-19T22:23:58.407Z,6.35
2023-05-19T22:26:27.448Z,6.60
2023-05-19T22:28:56.816Z,6.45
2023-05-19T22:31:25.936Z,6.80
2023-05-19T22:33:55.335Z,6.97
2023-05-19T22:36:24.828Z,6.80
2023-05-19T22:38:55.245Z,6.80
2023-05-19T22:41:24.238Z,6.90
2023-05-19T22:43:53.169Z,7.53
2023-05-19T22:46:22.233Z,6.78
2023-05-19T22:48:51.254Z,7.10
2023-05-19T22:51:20.343Z,6.45
2023-05-19T22:53:49.593Z,7.00
2023-05-19T22:56:19.921Z,6.72
2023-05-19T22:58:48.935Z,6.30
2023-05-19T23:01:18.913Z,6.35
2023-05-19T23:03:48.229Z,6.53
2023-05-19T23:06:17.378Z,6.65
2023-05-19T23:08:48.474Z,6.93
2023-05-19T23:11:17.420Z,6.68
2023-05-19T23:13:47.758Z,6.68
2023-05-19T23:16:16.846Z,6.10
2023-05-19T23:18:46.400Z,6.68
2023-05-19T23:21:15.336Z,6.72
2023-05-19T23:23:44.399Z,6.10
2023-05-19T23:26:14.360Z,6.55
2023-05-19T23:28:45.355Z,6.30
2023-05-19T23:31:15.762Z,6.43
2023-05-19T23:33:44.906Z,6.63
2023-05-19T23:36:14.689Z,6.45
2023-05-19T23:38:43.816Z,6.40
2023-05-19T23:41:13.011Z,6.10
2023-05-19T23:43:42.051Z,6.40
2023-05-19T23:46:11.326Z,6.60
2023-05-19T23:48:44.059Z,7.05
2023-05-19T23:51:13.344Z,5.93
2023-05-19T23:53:43.230Z,6.40
2023-05-19T23:56:12.521Z,6.15
2023-05-19T23:58:41.428Z,6.43
